Big Bend Natl Park, Texas
Current Conditions -  °F | °C
As of 1:55 AM on Friday 19 Dec 2014 (Local Time) from KPRS Reporting Station
Clear Clear  
Wind Chill: 45°   Ceiling: Unl
Heat Index: 47°   Visibility: 10mi
Dew Point: 33°   Wind: 5mph
Humidity: 59%   Direction: 10°N
Pressure: 30.09"   Gusts: NA
Location:  29.2°N, 103.2°W
Report Text: KPRS 190755Z AUTO 01004KT 10SM CLR 08/01 A3009 RMK AO2 T00820006
Loading
Personal Weather Stations






























Interactive Weather Map New forecast layout! Learn more

10-Day Weather Forecast

Advertisements
Track Severe Weather on mobile